sensor_id;sensor_type;location;lat;lon;timestamp;pressure;altitude;pressure_sealevel;temperature;humidity
62055;BME280;48653;51.742;-1.256;2024-03-08T00:03:46;100768.96;;;4.85;53.15
62055;BME280;48653;51.742;-1.256;2024-03-08T00:06:11;100768.47;;;5.14;52.47
62055;BME280;48653;51.742;-1.256;2024-03-08T00:08:36;100765.39;;;4.10;56.67
62055;BME280;48653;51.742;-1.256;2024-03-08T00:11:02;100769.83;;;4.79;55.43
62055;BME280;48653;51.742;-1.256;2024-03-08T00:13:27;100766.97;;;4.35;55.68
62055;BME280;48653;51.742;-1.256;2024-03-08T00:15:52;100765.94;;;4.26;55.12
62055;BME280;48653;51.742;-1.256;2024-03-08T00:18:18;100759.80;;;4.81;54.34
62055;BME280;48653;51.742;-1.256;2024-03-08T00:20:43;100759.20;;;4.05;56.04
62055;BME280;48653;51.742;-1.256;2024-03-08T00:23:08;100760.08;;;4.53;55.31
62055;BME280;48653;51.742;-1.256;2024-03-08T00:25:34;100752.76;;;4.88;53.80
62055;BME280;48653;51.742;-1.256;2024-03-08T00:27:59;100754.43;;;3.84;56.93
62055;BME280;48653;51.742;-1.256;2024-03-08T00:30:25;100752.20;;;4.64;55.12
62055;BME280;48653;51.742;-1.256;2024-03-08T00:32:50;100749.33;;;4.39;55.95
62055;BME280;48653;51.742;-1.256;2024-03-08T00:35:16;100744.02;;;4.30;56.03
62055;BME280;48653;51.742;-1.256;2024-03-08T00:37:41;100738.96;;;4.54;56.24
62055;BME280;48653;51.742;-1.256;2024-03-08T00:40:07;100738.20;;;4.11;58.08
62055;BME280;48653;51.742;-1.256;2024-03-08T00:42:32;100729.60;;;3.61;58.16
62055;BME280;48653;51.742;-1.256;2024-03-08T00:44:57;100725.54;;;4.27;57.94
62055;BME280;48653;51.742;-1.256;2024-03-08T00:47:23;100726.29;;;4.39;57.61
62055;BME280;48653;51.742;-1.256;2024-03-08T00:49:48;100723.65;;;4.00;57.86
62055;BME280;48653;51.742;-1.256;2024-03-08T00:52:14;100726.89;;;3.59;60.74
62055;BME280;48653;51.742;-1.256;2024-03-08T00:54:39;100722.76;;;4.30;58.36
62055;BME280;48653;51.742;-1.256;2024-03-08T00:57:05;100718.69;;;3.71;59.93
62055;BME280;48653;51.742;-1.256;2024-03-08T00:59:30;100712.99;;;4.07;59.75
62055;BME280;48653;51.742;-1.256;2024-03-08T01:01:55;100704.58;;;3.90;59.14
62055;BME280;48653;51.742;-1.256;2024-03-08T01:04:20;100702.25;;;4.69;57.08
62055;BME280;48653;51.742;-1.256;2024-03-08T01:06:46;100697.01;;;4.40;57.81
62055;BME280;48653;51.742;-1.256;2024-03-08T01:09:11;100697.52;;;3.76;60.15
62055;BME280;48653;51.742;-1.256;2024-03-08T01:11:37;100700.18;;;4.02;59.06
62055;BME280;48653;51.742;-1.256;2024-03-08T01:14:02;100698.44;;;4.19;59.25
62055;BME280;48653;51.742;-1.256;2024-03-08T01:16:27;100695.26;;;4.32;58.51
62055;BME280;48653;51.742;-1.256;2024-03-08T01:18:53;100690.29;;;4.49;58.36
62055;BME280;48653;51.742;-1.256;2024-03-08T01:21:18;100681.65;;;4.46;58.34
62055;BME280;48653;51.742;-1.256;2024-03-08T01:23:43;100682.15;;;5.33;56.07
62055;BME280;48653;51.742;-1.256;2024-03-08T01:26:09;100679.42;;;4.17;58.85
62055;BME280;48653;51.742;-1.256;2024-03-08T01:28:35;100680.97;;;4.88;57.83
62055;BME280;48653;51.742;-1.256;2024-03-08T01:31:00;100677.71;;;4.89;57.43
62055;BME280;48653;51.742;-1.256;2024-03-08T01:33:26;100677.02;;;4.91;56.77
62055;BME280;48653;51.742;-1.256;2024-03-08T01:35:51;100673.46;;;4.92;57.02
62055;BME280;48653;51.742;-1.256;2024-03-08T01:38:16;100672.74;;;5.44;56.44
62055;BME280;48653;51.742;-1.256;2024-03-08T01:40:41;100672.97;;;4.84;57.47
62055;BME280;48653;51.742;-1.256;2024-03-08T01:43:17;100672.14;;;5.24;56.74
62055;BME280;48653;51.742;-1.256;2024-03-08T01:45:32;100665.73;;;5.44;55.39
62055;BME280;48653;51.742;-1.256;2024-03-08T01:47:57;100663.30;;;6.11;53.62
62055;BME280;48653;51.742;-1.256;2024-03-08T01:50:23;100663.26;;;5.67;54.23
62055;BME280;48653;51.742;-1.256;2024-03-08T01:52:48;100654.45;;;5.77;53.64
62055;BME280;48653;51.742;-1.256;2024-03-08T01:55:14;100653.99;;;6.10;53.30
62055;BME280;48653;51.742;-1.256;2024-03-08T01:57:39;100651.32;;;5.42;54.10
62055;BME280;48653;51.742;-1.256;2024-03-08T02:00:06;100644.14;;;5.85;53.16
62055;BME280;48653;51.742;-1.256;2024-03-08T02:02:30;100640.93;;;5.45;54.38
62055;BME280;48653;51.742;-1.256;2024-03-08T02:04:55;100639.39;;;5.94;53.17
62055;BME280;48653;51.742;-1.256;2024-03-08T02:07:20;100635.57;;;5.55;53.33
62055;BME280;48653;51.742;-1.256;2024-03-08T02:09:46;100634.13;;;5.74;52.93
62055;BME280;48653;51.742;-1.256;2024-03-08T02:12:12;100622.55;;;5.94;51.95
62055;BME280;48653;51.742;-1.256;2024-03-08T02:14:37;100622.40;;;5.96;51.97
62055;BME280;48653;51.742;-1.256;2024-03-08T02:17:03;100619.37;;;5.72;52.86
62055;BME280;48653;51.742;-1.256;2024-03-08T02:19:28;100616.25;;;6.12;52.11
62055;BME280;48653;51.742;-1.256;2024-03-08T02:21:54;100616.32;;;5.75;52.16
62055;BME280;48653;51.742;-1.256;2024-03-08T02:24:19;100608.85;;;6.12;51.31
62055;BME280;48653;51.742;-1.256;2024-03-08T02:26:45;100611.30;;;5.78;52.40
62055;BME280;48653;51.742;-1.256;2024-03-08T02:29:10;100602.87;;;5.85;52.27
62055;BME280;48653;51.742;-1.256;2024-03-08T02:31:35;100597.58;;;5.95;52.00
62055;BME280;48653;51.742;-1.256;2024-03-08T02:34:01;100596.75;;;4.88;54.42
62055;BME280;48653;51.742;-1.256;2024-03-08T02:36:26;100591.19;;;5.55;52.92
62055;BME280;48653;51.742;-1.256;2024-03-08T02:38:52;100584.46;;;5.28;53.46
62055;BME280;48653;51.742;-1.256;2024-03-08T02:41:17;100578.01;;;5.30;53.36
62055;BME280;48653;51.742;-1.256;2024-03-08T02:43:42;100576.19;;;5.49;52.70
62055;BME280;48653;51.742;-1.256;2024-03-08T02:46:07;100569.92;;;5.74;52.15
62055;BME280;48653;51.742;-1.256;2024-03-08T02:48:33;100565.63;;;4.86;54.16
62055;BME280;48653;51.742;-1.256;2024-03-08T02:50:58;100559.72;;;4.69;54.79
62055;BME280;48653;51.742;-1.256;2024-03-08T02:53:23;100547.70;;;5.37;54.36
62055;BME280;48653;51.742;-1.256;2024-03-08T02:55:49;100547.26;;;4.70;54.91
62055;BME280;48653;51.742;-1.256;2024-03-08T02:58:14;100539.58;;;4.46;55.45
62055;BME280;48653;51.742;-1.256;2024-03-08T03:00:39;100531.34;;;4.43;56.71
62055;BME280;48653;51.742;-1.256;2024-03-08T03:03:05;100532.93;;;4.26;57.51
62055;BME280;48653;51.742;-1.256;2024-03-08T03:05:32;100528.95;;;4.42;56.83
62055;BME280;48653;51.742;-1.256;2024-03-08T03:07:56;100526.01;;;4.66;56.34
62055;BME280;48653;51.742;-1.256;2024-03-08T03:10:22;100521.73;;;5.19;54.75
62055;BME280;48653;51.742;-1.256;2024-03-08T03:12:48;100519.94;;;5.05;54.79
62055;BME280;48653;51.742;-1.256;2024-03-08T03:15:13;100517.26;;;5.28;55.26
62055;BME280;48653;51.742;-1.256;2024-03-08T03:17:38;100514.32;;;5.22;55.43
62055;BME280;48653;51.742;-1.256;2024-03-08T03:20:05;100512.67;;;4.70;56.53
62055;BME280;48653;51.742;-1.256;2024-03-08T03:22:28;100506.71;;;4.85;57.36
62055;BME280;48653;51.742;-1.256;2024-03-08T03:24:53;100503.11;;;4.76;57.03
62055;BME280;48653;51.742;-1.256;2024-03-08T03:27:19;100497.67;;;4.81;56.01
62055;BME280;48653;51.742;-1.256;2024-03-08T03:29:44;100491.11;;;4.48;57.88
62055;BME280;48653;51.742;-1.256;2024-03-08T03:32:09;100487.94;;;4.46;58.05
62055;BME280;48653;51.742;-1.256;2024-03-08T03:34:35;100486.63;;;4.65;57.45
62055;BME280;48653;51.742;-1.256;2024-03-08T03:37:01;100481.44;;;4.16;59.14
62055;BME280;48653;51.742;-1.256;2024-03-08T03:39:26;100481.62;;;4.34;59.06
62055;BME280;48653;51.742;-1.256;2024-03-08T03:41:51;100478.89;;;4.88;58.41
62055;BME280;48653;51.742;-1.256;2024-03-08T03:44:17;100477.56;;;5.18;57.16
62055;BME280;48653;51.742;-1.256;2024-03-08T03:46:43;100473.89;;;4.89;57.92
62055;BME280;48653;51.742;-1.256;2024-03-08T03:49:08;100475.18;;;4.85;58.02
62055;BME280;48653;51.742;-1.256;2024-03-08T03:51:33;100475.21;;;4.38;58.79
62055;BME280;48653;51.742;-1.256;2024-03-08T03:53:59;100472.47;;;4.67;58.63
62055;BME280;48653;51.742;-1.256;2024-03-08T03:56:25;100472.87;;;4.44;59.05
62055;BME280;48653;51.742;-1.256;2024-03-08T03:58:49;100470.65;;;4.48;59.14
62055;BME280;48653;51.742;-1.256;2024-03-08T04:01:15;100465.29;;;4.45;59.25
62055;BME280;48653;51.742;-1.256;2024-03-08T04:03:41;100465.97;;;4.31;60.33
62055;BME280;48653;51.742;-1.256;2024-03-08T04:06:06;100459.05;;;4.74;58.88
62055;BME280;48653;51.742;-1.256;2024-03-08T04:08:31;100458.51;;;4.49;59.32
62055;BME280;48653;51.742;-1.256;2024-03-08T04:10:56;100454.99;;;4.76;58.74
62055;BME280;48653;51.742;-1.256;2024-03-08T04:13:22;100453.93;;;4.91;58.28
62055;BME280;48653;51.742;-1.256;2024-03-08T04:15:48;100449.72;;;4.91;58.33
62055;BME280;48653;51.742;-1.256;2024-03-08T04:18:13;100449.22;;;4.89;58.08
62055;BME280;48653;51.742;-1.256;2024-03-08T04:20:38;100447.93;;;4.02;59.82
62055;BME280;48653;51.742;-1.256;2024-03-08T04:23:04;100444.09;;;4.19;60.31
62055;BME280;48653;51.742;-1.256;2024-03-08T04:25:30;100438.82;;;4.07;59.94
62055;BME280;48653;51.742;-1.256;2024-03-08T04:27:55;100426.01;;;4.05;60.56
62055;BME280;48653;51.742;-1.256;2024-03-08T04:30:20;100418.75;;;4.16;60.31
62055;BME280;48653;51.742;-1.256;2024-03-08T04:32:45;100414.63;;;4.94;57.94
62055;BME280;48653;51.742;-1.256;2024-03-08T04:35:10;100419.32;;;3.87;60.64
62055;BME280;48653;51.742;-1.256;2024-03-08T04:37:36;100419.74;;;3.84;61.80
62055;BME280;48653;51.742;-1.256;2024-03-08T04:40:02;100419.11;;;4.02;60.83
62055;BME280;48653;51.742;-1.256;2024-03-08T04:42:28;100414.98;;;3.73;61.59
62055;BME280;48653;51.742;-1.256;2024-03-08T04:44:53;100418.78;;;4.45;60.39
62055;BME280;48653;51.742;-1.256;2024-03-08T04:47:18;100410.90;;;3.69;60.84
62055;BME280;48653;51.742;-1.256;2024-03-08T04:49:44;100411.83;;;3.65;61.57
62055;BME280;48653;51.742;-1.256;2024-03-08T04:52:10;100410.52;;;3.97;61.44
62055;BME280;48653;51.742;-1.256;2024-03-08T04:54:35;100412.61;;;4.10;61.11
62055;BME280;48653;51.742;-1.256;2024-03-08T04:57:00;100411.18;;;3.83;62.05
62055;BME280;48653;51.742;-1.256;2024-03-08T04:59:26;100407.93;;;4.34;59.28
62055;BME280;48653;51.742;-1.256;2024-03-08T05:01:51;100399.70;;;5.00;58.16
62055;BME280;48653;51.742;-1.256;2024-03-08T05:04:16;100398.90;;;5.04;58.07
62055;BME280;48653;51.742;-1.256;2024-03-08T05:06:42;100398.54;;;4.54;59.94
62055;BME280;48653;51.742;-1.256;2024-03-08T05:09:07;100399.68;;;3.85;60.70
62055;BME280;48653;51.742;-1.256;2024-03-08T05:11:33;100395.57;;;4.18;60.85
62055;BME280;48653;51.742;-1.256;2024-03-08T05:13:58;100390.43;;;3.54;62.14
62055;BME280;48653;51.742;-1.256;2024-03-08T05:16:23;100388.74;;;3.37;62.92
62055;BME280;48653;51.742;-1.256;2024-03-08T05:18:48;100386.56;;;3.56;62.44
62055;BME280;48653;51.742;-1.256;2024-03-08T05:21:14;100384.48;;;3.89;61.79
62055;BME280;48653;51.742;-1.256;2024-03-08T05:23:39;100380.37;;;3.61;62.20
62055;BME280;48653;51.742;-1.256;2024-03-08T05:26:05;100375.75;;;4.43;60.04
62055;BME280;48653;51.742;-1.256;2024-03-08T05:28:30;100376.16;;;4.56;59.04
62055;BME280;48653;51.742;-1.256;2024-03-08T05:30:56;100368.05;;;4.45;58.78
62055;BME280;48653;51.742;-1.256;2024-03-08T05:33:21;100365.27;;;4.53;59.13
62055;BME280;48653;51.742;-1.256;2024-03-08T05:35:46;100359.37;;;4.21;59.91
62055;BME280;48653;51.742;-1.256;2024-03-08T05:38:12;100361.75;;;4.06;60.06
62055;BME280;48653;51.742;-1.256;2024-03-08T05:40:37;100360.30;;;4.21;60.85
62055;BME280;48653;51.742;-1.256;2024-03-08T05:43:04;100360.42;;;4.06;61.03
62055;BME280;48653;51.742;-1.256;2024-03-08T05:45:29;100360.98;;;4.22;61.21
62055;BME280;48653;51.742;-1.256;2024-03-08T05:47:54;100358.44;;;4.28;61.36
62055;BME280;48653;51.742;-1.256;2024-03-08T05:50:19;100358.33;;;4.46;59.76
62055;BME280;48653;51.742;-1.256;2024-03-08T05:52:44;100353.15;;;5.05;57.92
62055;BME280;48653;51.742;-1.256;2024-03-08T05:55:10;100351.00;;;4.97;58.51
62055;BME280;48653;51.742;-1.256;2024-03-08T05:57:35;100350.94;;;5.14;58.34
62055;BME280;48653;51.742;-1.256;2024-03-08T06:00:01;100343.47;;;4.64;58.97
62055;BME280;48653;51.742;-1.256;2024-03-08T06:02:26;100341.26;;;4.68;59.39
62055;BME280;48653;51.742;-1.256;2024-03-08T06:04:51;100341.83;;;4.31;60.57
62055;BME280;48653;51.742;-1.256;2024-03-08T06:07:17;100335.81;;;5.23;59.64
62055;BME280;48653;51.742;-1.256;2024-03-08T06:09:43;100339.99;;;4.12;60.65
62055;BME280;48653;51.742;-1.256;2024-03-08T06:12:08;100336.69;;;4.91;60.10
62055;BME280;48653;51.742;-1.256;2024-03-08T06:14:33;100335.50;;;5.27;57.80
62055;BME280;48653;51.742;-1.256;2024-03-08T06:16:59;100333.80;;;5.19;57.71
62055;BME280;48653;51.742;-1.256;2024-03-08T06:19:24;100334.46;;;5.17;58.37
62055;BME280;48653;51.742;-1.256;2024-03-08T06:21:49;100336.51;;;4.99;58.17
62055;BME280;48653;51.742;-1.256;2024-03-08T06:24:15;100336.76;;;4.92;57.63
62055;BME280;48653;51.742;-1.256;2024-03-08T06:26:40;100343.50;;;5.08;57.34
62055;BME280;48653;51.742;-1.256;2024-03-08T06:29:05;100338.36;;;4.91;57.53
62055;BME280;48653;51.742;-1.256;2024-03-08T06:31:31;100337.88;;;5.69;57.00
62055;BME280;48653;51.742;-1.256;2024-03-08T06:33:56;100336.57;;;5.48;56.53
62055;BME280;48653;51.742;-1.256;2024-03-08T06:36:21;100338.13;;;5.20;57.05
62055;BME280;48653;51.742;-1.256;2024-03-08T06:38:46;100335.24;;;5.44;56.10
62055;BME280;48653;51.742;-1.256;2024-03-08T06:41:12;100336.43;;;5.14;57.10
62055;BME280;48653;51.742;-1.256;2024-03-08T06:43:38;100334.11;;;5.27;56.69
62055;BME280;48653;51.742;-1.256;2024-03-08T06:46:03;100331.17;;;5.26;57.75
62055;BME280;48653;51.742;-1.256;2024-03-08T06:48:28;100325.29;;;4.77;58.87
62055;BME280;48653;51.742;-1.256;2024-03-08T06:50:54;100320.73;;;5.19;56.97
62055;BME280;48653;51.742;-1.256;2024-03-08T06:53:19;100313.84;;;5.26;56.39
62055;BME280;48653;51.742;-1.256;2024-03-08T06:55:45;100315.52;;;5.08;56.89
62055;BME280;48653;51.742;-1.256;2024-03-08T06:58:10;100314.15;;;5.21;56.34
62055;BME280;48653;51.742;-1.256;2024-03-08T07:00:36;100314.05;;;5.22;56.67
62055;BME280;48653;51.742;-1.256;2024-03-08T07:03:02;100313.99;;;5.38;56.09
62055;BME280;48653;51.742;-1.256;2024-03-08T07:05:29;100317.87;;;5.35;56.97
62055;BME280;48653;51.742;-1.256;2024-03-08T07:07:53;100319.64;;;5.38;56.90
62055;BME280;48653;51.742;-1.256;2024-03-08T07:12:43;100315.98;;;5.46;55.84
62055;BME280;48653;51.742;-1.256;2024-03-08T07:15:09;100314.89;;;5.49;55.70
62055;BME280;48653;51.742;-1.256;2024-03-08T07:17:34;100312.05;;;6.06;54.85
62055;BME280;48653;51.742;-1.256;2024-03-08T07:20:00;100313.58;;;4.85;57.44
62055;BME280;48653;51.742;-1.256;2024-03-08T07:22:25;100310.64;;;5.34;56.72
62055;BME280;48653;51.742;-1.256;2024-03-08T07:24:51;100310.10;;;5.03;57.34
62055;BME280;48653;51.742;-1.256;2024-03-08T07:27:16;100305.29;;;5.12;56.65
62055;BME280;48653;51.742;-1.256;2024-03-08T07:29:42;100313.05;;;4.74;58.00
62055;BME280;48653;51.742;-1.256;2024-03-08T07:32:07;100309.41;;;5.55;56.49
62055;BME280;48653;51.742;-1.256;2024-03-08T07:34:32;100310.64;;;5.55;56.08
62055;BME280;48653;51.742;-1.256;2024-03-08T07:36:58;100311.34;;;4.83;57.47
62055;BME280;48653;51.742;-1.256;2024-03-08T07:39:23;100310.27;;;4.88;57.74
62055;BME280;48653;51.742;-1.256;2024-03-08T07:41:48;100310.10;;;4.83;57.64
62055;BME280;48653;51.742;-1.256;2024-03-08T07:44:13;100305.96;;;5.74;55.23
62055;BME280;48653;51.742;-1.256;2024-03-08T07:46:39;100308.33;;;5.09;56.72
62055;BME280;48653;51.742;-1.256;2024-03-08T07:49:05;100302.56;;;5.27;55.75
62055;BME280;48653;51.742;-1.256;2024-03-08T07:51:29;100301.44;;;5.72;55.48
62055;BME280;48653;51.742;-1.256;2024-03-08T07:53:56;100305.19;;;4.78;57.02
62055;BME280;48653;51.742;-1.256;2024-03-08T07:56:21;100299.91;;;4.97;57.89
62055;BME280;48653;51.742;-1.256;2024-03-08T07:58:46;100298.98;;;5.01;57.47
62055;BME280;48653;51.742;-1.256;2024-03-08T08:01:16;100295.35;;;4.81;58.05
62055;BME280;48653;51.742;-1.256;2024-03-08T08:03:37;100289.43;;;5.22;56.94
62055;BME280;48653;51.742;-1.256;2024-03-08T08:06:03;100289.39;;;5.08;57.40
62055;BME280;48653;51.742;-1.256;2024-03-08T08:08:28;100289.77;;;5.05;56.89
62055;BME280;48653;51.742;-1.256;2024-03-08T08:10:53;100282.85;;;4.07;58.69
62055;BME280;48653;51.742;-1.256;2024-03-08T08:13:18;100282.57;;;4.45;57.83
62055;BME280;48653;51.742;-1.256;2024-03-08T08:15:44;100286.46;;;4.45;58.10
62055;BME280;48653;51.742;-1.256;2024-03-08T08:18:09;100279.91;;;4.73;57.50
62055;BME280;48653;51.742;-1.256;2024-03-08T08:20:35;100284.32;;;4.42;57.19
62055;BME280;48653;51.742;-1.256;2024-03-08T08:23:01;100283.01;;;4.27;57.48
62055;BME280;48653;51.742;-1.256;2024-03-08T08:25:26;100281.05;;;5.56;55.00
62055;BME280;48653;51.742;-1.256;2024-03-08T08:27:52;100280.86;;;4.53;56.41
62055;BME280;48653;51.742;-1.256;2024-03-08T08:30:17;100279.07;;;4.43;57.05
62055;BME280;48653;51.742;-1.256;2024-03-08T08:32:43;100280.07;;;4.38;56.27
62055;BME280;48653;51.742;-1.256;2024-03-08T08:35:09;100274.69;;;4.33;56.79
62055;BME280;48653;51.742;-1.256;2024-03-08T08:37:34;100277.77;;;3.83;58.04
62055;BME280;48653;51.742;-1.256;2024-03-08T08:39:59;100262.20;;;4.19;58.29
62055;BME280;48653;51.742;-1.256;2024-03-08T08:42:24;100262.16;;;4.47;57.77
62055;BME280;48653;51.742;-1.256;2024-03-08T08:44:51;100258.08;;;4.03;58.71
62055;BME280;48653;51.742;-1.256;2024-03-08T08:47:15;100250.86;;;4.49;57.36
62055;BME280;48653;51.742;-1.256;2024-03-08T08:49:41;100242.64;;;4.79;56.39
62055;BME280;48653;51.742;-1.256;2024-03-08T08:52:06;100241.88;;;5.20;55.39
62055;BME280;48653;51.742;-1.256;2024-03-08T08:54:32;100243.68;;;5.29;55.07
62055;BME280;48653;51.742;-1.256;2024-03-08T08:56:57;100238.87;;;5.50;54.39
62055;BME280;48653;51.742;-1.256;2024-03-08T08:59:23;100232.37;;;4.81;55.82
62055;BME280;48653;51.742;-1.256;2024-03-08T09:01:48;100230.02;;;5.20;55.05
62055;BME280;48653;51.742;-1.256;2024-03-08T09:04:13;100233.50;;;5.09;55.37
62055;BME280;48653;51.742;-1.256;2024-03-08T09:06:39;100227.75;;;4.82;55.37
62055;BME280;48653;51.742;-1.256;2024-03-08T09:09:04;100222.10;;;5.56;54.22
62055;BME280;48653;51.742;-1.256;2024-03-08T09:11:30;100214.40;;;5.65;54.96
62055;BME280;48653;51.742;-1.256;2024-03-08T09:13:55;100216.54;;;5.51;54.05
62055;BME280;48653;51.742;-1.256;2024-03-08T09:16:21;100211.74;;;6.15;52.42
62055;BME280;48653;51.742;-1.256;2024-03-08T09:18:46;100209.06;;;6.53;51.29
62055;BME280;48653;51.742;-1.256;2024-03-08T09:21:12;100211.35;;;6.47;51.02
62055;BME280;48653;51.742;-1.256;2024-03-08T09:23:38;100196.49;;;6.03;52.44
62055;BME280;48653;51.742;-1.256;2024-03-08T09:26:03;100191.09;;;6.17;52.57
62055;BME280;48653;51.742;-1.256;2024-03-08T09:28:29;100189.05;;;6.00;52.15
62055;BME280;48653;51.742;-1.256;2024-03-08T09:30:54;100180.93;;;6.30;51.85
62055;BME280;48653;51.742;-1.256;2024-03-08T09:33:20;100174.62;;;6.23;51.29
62055;BME280;48653;51.742;-1.256;2024-03-08T09:35:45;100171.39;;;6.26;52.01
62055;BME280;48653;51.742;-1.256;2024-03-08T09:38:11;100158.43;;;6.21;51.53
62055;BME280;48653;51.742;-1.256;2024-03-08T09:40:36;100164.57;;;5.82;52.42
62055;BME280;48653;51.742;-1.256;2024-03-08T09:43:02;100154.73;;;6.30;52.35
62055;BME280;48653;51.742;-1.256;2024-03-08T09:45:27;100148.24;;;6.08;52.16
62055;BME280;48653;51.742;-1.256;2024-03-08T09:47:52;100150.09;;;6.42;51.68
62055;BME280;48653;51.742;-1.256;2024-03-08T09:50:18;100140.87;;;6.06;51.31
62055;BME280;48653;51.742;-1.256;2024-03-08T09:52:43;100147.94;;;6.37;51.52
62055;BME280;48653;51.742;-1.256;2024-03-08T09:55:09;100138.33;;;6.39;51.21
62055;BME280;48653;51.742;-1.256;2024-03-08T09:57:36;100133.17;;;6.02;51.62
62055;BME280;48653;51.742;-1.256;2024-03-08T10:00:00;100129.93;;;6.12;51.28
62055;BME280;48653;51.742;-1.256;2024-03-08T10:02:25;100131.13;;;6.55;50.85
62055;BME280;48653;51.742;-1.256;2024-03-08T10:04:51;100124.28;;;6.37;50.16
62055;BME280;48653;51.742;-1.256;2024-03-08T10:07:16;100119.78;;;6.19;50.45
62055;BME280;48653;51.742;-1.256;2024-03-08T10:09:42;100120.41;;;6.33;51.12
62055;BME280;48653;51.742;-1.256;2024-03-08T10:12:08;100115.14;;;6.79;49.87
62055;BME280;48653;51.742;-1.256;2024-03-08T10:14:33;100107.39;;;7.45;48.78
62055;BME280;48653;51.742;-1.256;2024-03-08T10:16:58;100098.67;;;7.68;47.31
62055;BME280;48653;51.742;-1.256;2024-03-08T10:19:24;100101.07;;;6.80;48.07
62055;BME280;48653;51.742;-1.256;2024-03-08T10:21:50;100090.40;;;7.10;47.82
62055;BME280;48653;51.742;-1.256;2024-03-08T10:24:15;100086.81;;;6.14;50.23
62055;BME280;48653;51.742;-1.256;2024-03-08T10:26:40;100086.94;;;6.52;50.26
62055;BME280;48653;51.742;-1.256;2024-03-08T10:29:07;100086.79;;;6.84;49.12
62055;BME280;48653;51.742;-1.256;2024-03-08T10:31:33;100079.05;;;6.81;49.58
62055;BME280;48653;51.742;-1.256;2024-03-08T10:33:57;100074.61;;;6.84;49.22
62055;BME280;48653;51.742;-1.256;2024-03-08T10:36:22;100054.73;;;7.51;47.50
62055;BME280;48653;51.742;-1.256;2024-03-08T10:38:51;100052.85;;;7.55;47.83
62055;BME280;48653;51.742;-1.256;2024-03-08T10:41:14;100063.35;;;7.68;47.33
62055;BME280;48653;51.742;-1.256;2024-03-08T10:43:52;100046.49;;;8.28;46.63
62055;BME280;48653;51.742;-1.256;2024-03-08T10:46:14;100037.07;;;7.84;46.93
62055;BME280;48653;51.742;-1.256;2024-03-08T10:48:31;100036.65;;;8.90;46.33
62055;BME280;48653;51.742;-1.256;2024-03-08T10:50:57;100032.48;;;7.39;47.30
62055;BME280;48653;51.742;-1.256;2024-03-08T10:53:23;100033.75;;;7.64;46.61
62055;BME280;48653;51.742;-1.256;2024-03-08T10:55:47;100028.23;;;9.24;44.42
62055;BME280;48653;51.742;-1.256;2024-03-08T10:58:12;100022.05;;;9.16;43.56
62055;BME280;48653;51.742;-1.256;2024-03-08T11:00:38;100019.77;;;8.19;45.88
62055;BME280;48653;51.742;-1.256;2024-03-08T11:03:04;100017.91;;;7.94;46.36
62055;BME280;48653;51.742;-1.256;2024-03-08T11:05:36;100011.17;;;7.60;46.92
62055;BME280;48653;51.742;-1.256;2024-03-08T11:07:54;100021.09;;;7.00;48.92
62055;BME280;48653;51.742;-1.256;2024-03-08T11:10:20;100009.95;;;7.58;47.94
62055;BME280;48653;51.742;-1.256;2024-03-08T11:12:45;100007.56;;;7.87;48.05
62055;BME280;48653;51.742;-1.256;2024-03-08T11:15:12;100007.74;;;6.99;47.56
62055;BME280;48653;51.742;-1.256;2024-03-08T11:17:45;99999.21;;;7.62;47.76
62055;BME280;48653;51.742;-1.256;2024-03-08T11:20:01;99996.21;;;7.91;47.60
62055;BME280;48653;51.742;-1.256;2024-03-08T11:22:29;100000.91;;;7.97;47.21
62055;BME280;48653;51.742;-1.256;2024-03-08T11:24:52;99992.07;;;7.60;47.15
62055;BME280;48653;51.742;-1.256;2024-03-08T11:27:18;99986.78;;;7.80;46.76
62055;BME280;48653;51.742;-1.256;2024-03-08T11:29:43;99982.93;;;8.00;46.76
62055;BME280;48653;51.742;-1.256;2024-03-08T11:32:10;99988.12;;;7.99;46.84
62055;BME280;48653;51.742;-1.256;2024-03-08T11:34:34;99982.90;;;8.45;45.36
62055;BME280;48653;51.742;-1.256;2024-03-08T11:36:59;99982.88;;;8.06;46.53
62055;BME280;48653;51.742;-1.256;2024-03-08T11:39:24;99982.08;;;7.93;47.38
62055;BME280;48653;51.742;-1.256;2024-03-08T11:41:50;99981.47;;;7.50;46.86
62055;BME280;48653;51.742;-1.256;2024-03-08T11:44:15;99975.58;;;7.48;47.39
62055;BME280;48653;51.742;-1.256;2024-03-08T11:46:41;99979.89;;;7.09;47.63
62055;BME280;48653;51.742;-1.256;2024-03-08T11:49:06;99968.06;;;7.86;47.47
62055;BME280;48653;51.742;-1.256;2024-03-08T11:51:32;99964.39;;;8.42;45.14
62055;BME280;48653;51.742;-1.256;2024-03-08T11:53:57;99965.07;;;8.90;45.01
62055;BME280;48653;51.742;-1.256;2024-03-08T11:56:23;99958.19;;;9.21;44.25
62055;BME280;48653;51.742;-1.256;2024-03-08T11:58:54;99957.48;;;9.30;44.88
62055;BME280;48653;51.742;-1.256;2024-03-08T12:01:21;99958.06;;;8.74;44.46
62055;BME280;48653;51.742;-1.256;2024-03-08T12:03:39;99954.56;;;10.07;43.41
62055;BME280;48653;51.742;-1.256;2024-03-08T12:06:05;99943.06;;;11.27;41.02
62055;BME280;48653;51.742;-1.256;2024-03-08T12:08:30;99936.85;;;10.28;40.66
62055;BME280;48653;51.742;-1.256;2024-03-08T12:10:55;99935.67;;;9.59;40.88
62055;BME280;48653;51.742;-1.256;2024-03-08T12:13:20;99933.24;;;9.44;42.18
62055;BME280;48653;51.742;-1.256;2024-03-08T12:15:45;99934.07;;;9.57;40.97
62055;BME280;48653;51.742;-1.256;2024-03-08T12:18:11;99930.07;;;10.11;40.25
62055;BME280;48653;51.742;-1.256;2024-03-08T12:20:37;99930.79;;;9.79;41.05
62055;BME280;48653;51.742;-1.256;2024-03-08T12:23:03;99921.34;;;10.05;40.77
62055;BME280;48653;51.742;-1.256;2024-03-08T12:25:30;99919.05;;;10.13;39.98
62055;BME280;48653;51.742;-1.256;2024-03-08T12:27:54;99917.95;;;10.66;39.91
62055;BME280;48653;51.742;-1.256;2024-03-08T12:30:21;99907.53;;;10.38;38.78
62055;BME280;48653;51.742;-1.256;2024-03-08T12:32:48;99884.46;;;11.10;38.81
62055;BME280;48653;51.742;-1.256;2024-03-08T12:35:10;99904.75;;;10.12;39.22
62055;BME280;48653;51.742;-1.256;2024-03-08T12:37:35;99886.23;;;10.95;37.14
62055;BME280;48653;51.742;-1.256;2024-03-08T12:40:00;99895.11;;;11.35;36.87
62055;BME280;48653;51.742;-1.256;2024-03-08T12:42:26;99884.61;;;11.89;37.02
62055;BME280;48653;51.742;-1.256;2024-03-08T12:44:51;99887.67;;;11.26;37.47